Terminal Aerodrome Forecast
Issued by NWS Shreveport, LA

Home | Current Version | Previous Version | Text Only | Print | Product List | Glossary On
Versions: 1 2 3 4 5 6 7 8 9 10 11 12 13 14 15 16 17 18 19 20 21 22 23 24 25
000
FTUS44 KSHV 271142
TAFGGG
TAF
KGGG 271142Z 2712/2812 14005KT P6SM BKN100
     FM271500 18008KT P6SM SCT024
     FM271800 19009KT P6SM SCT035
     FM280000 15005KT P6SM BKN050=

USA.gov is the U.S. government's official web portal to all federal, state and local government web resources and services.